createdAt,value
2023-05-13T00:01:38.637Z,9.50
2023-05-13T00:04:07.038Z,9.13
2023-05-13T00:06:35.329Z,10.60
2023-05-13T00:09:05.724Z,10.60
2023-05-13T00:11:33.848Z,9.20
2023-05-13T00:14:01.873Z,9.73
2023-05-13T00:16:30.021Z,9.67
2023-05-13T00:18:58.092Z,9.90
2023-05-13T00:21:26.285Z,8.73
2023-05-13T00:23:54.385Z,8.87
2023-05-13T00:26:23.817Z,9.87
2023-05-13T00:28:51.914Z,9.03
2023-05-13T00:31:20.683Z,9.00
2023-05-13T00:33:48.809Z,8.77
2023-05-13T00:36:16.891Z,10.07
2023-05-13T00:38:45.039Z,9.00
2023-05-13T00:41:13.510Z,9.57
2023-05-13T00:43:43.367Z,10.83
2023-05-13T00:46:11.385Z,10.30
2023-05-13T00:48:39.899Z,9.67
2023-05-13T00:51:08.077Z,10.80
2023-05-13T00:53:36.306Z,9.20
2023-05-13T00:56:04.453Z,9.60
2023-05-13T00:58:32.662Z,9.43
2023-05-13T01:01:08.143Z,9.40
2023-05-13T01:03:45.535Z,10.67
2023-05-13T01:06:16.676Z,7.90
2023-05-13T01:08:50.219Z,9.10
2023-05-13T01:11:23.422Z,7.63
2023-05-13T01:13:56.521Z,8.10
2023-05-13T01:16:30.723Z,7.70
2023-05-13T01:19:02.219Z,9.67
2023-05-13T01:21:36.635Z,11.27
2023-05-13T01:24:04.978Z,12.37
2023-05-13T01:26:33.114Z,7.80
2023-05-13T01:29:01.270Z,7.60
2023-05-13T01:31:30.533Z,7.10
2023-05-13T01:33:58.943Z,7.63
2023-05-13T01:36:27.240Z,7.50
2023-05-13T01:38:57.446Z,6.97
2023-05-13T01:41:28.376Z,7.97
2023-05-13T01:43:56.548Z,7.77
2023-05-13T01:46:24.797Z,7.87
2023-05-13T01:48:53.039Z,8.30
2023-05-13T01:51:21.243Z,8.10
2023-05-13T01:53:49.361Z,9.47
2023-05-13T01:56:19.151Z,10.53
2023-05-13T01:58:49.519Z,9.93
2023-05-13T02:01:18.113Z,7.90
2023-05-13T02:03:47.220Z,10.03
2023-05-13T02:06:15.509Z,8.67
2023-05-13T02:08:43.560Z,8.90
2023-05-13T02:11:11.900Z,8.63
2023-05-13T02:13:41.415Z,9.23
2023-05-13T02:16:09.557Z,9.57
2023-05-13T02:18:37.934Z,8.27
2023-05-13T02:21:07.217Z,8.10
2023-05-13T02:23:35.371Z,8.57
2023-05-13T02:26:03.477Z,8.33
2023-05-13T02:28:31.631Z,8.20
2023-05-13T02:31:00.981Z,9.23
2023-05-13T02:33:29.137Z,8.67
2023-05-13T02:35:57.193Z,9.27
2023-05-13T02:38:25.348Z,9.77
2023-05-13T02:40:53.551Z,9.27
2023-05-13T02:43:23.509Z,8.90
2023-05-13T02:45:57.393Z,9.70
2023-05-13T02:48:27.211Z,9.30
2023-05-13T02:50:55.265Z,10.30
2023-05-13T02:53:24.104Z,9.97
2023-05-13T02:55:59.922Z,9.80
2023-05-13T02:58:28.176Z,11.23
2023-05-13T03:01:00.000Z,9.67
2023-05-13T03:03:32.444Z,10.10
2023-05-13T03:06:00.891Z,10.60
2023-05-13T03:08:28.992Z,10.30
2023-05-13T03:10:57.052Z,11.60
2023-05-13T03:13:25.156Z,11.60
2023-05-13T03:15:53.238Z,10.10
2023-05-13T03:18:21.429Z,10.83
2023-05-13T03:20:51.329Z,9.80
2023-05-13T03:23:19.880Z,11.07
2023-05-13T03:25:50.078Z,10.67
2023-05-13T03:28:18.779Z,12.30
2023-05-13T03:30:48.057Z,10.63
2023-05-13T03:33:19.663Z,12.60
2023-05-13T03:35:49.702Z,15.63
2023-05-13T03:38:22.302Z,10.47
2023-05-13T03:40:51.788Z,12.90
2023-05-13T03:43:19.887Z,10.97
2023-05-13T03:45:54.390Z,11.53
2023-05-13T03:48:24.267Z,12.73
2023-05-13T03:50:53.082Z,12.77
2023-05-13T03:53:22.891Z,12.17
2023-05-13T03:55:51.288Z,13.07
2023-05-13T03:58:19.367Z,12.87
2023-05-13T04:00:47.626Z,12.40
2023-05-13T04:03:17.266Z,13.57
2023-05-13T04:05:47.385Z,14.23
2023-05-13T04:08:15.761Z,15.87
2023-05-13T04:10:45.975Z,13.03
2023-05-13T04:13:14.035Z,15.63
2023-05-13T04:15:42.085Z,14.07
2023-05-13T04:18:10.197Z,14.90
2023-05-13T04:20:39.548Z,14.20
2023-05-13T04:23:07.636Z,13.30
2023-05-13T04:25:36.825Z,13.70
2023-05-13T04:28:07.153Z,16.97
2023-05-13T04:30:39.810Z,13.60
2023-05-13T04:33:08.237Z,13.77
2023-05-13T04:35:37.854Z,16.57
2023-05-13T04:38:06.362Z,13.23
2023-05-13T04:40:34.480Z,13.63
2023-05-13T04:43:09.059Z,15.93
2023-05-13T04:45:44.164Z,14.90
2023-05-13T04:48:14.715Z,15.73
2023-05-13T04:50:46.456Z,14.67
2023-05-13T04:53:16.043Z,14.43
2023-05-13T04:55:45.457Z,15.80
2023-05-13T04:58:14.941Z,15.87
2023-05-13T05:00:45.739Z,13.73
2023-05-13T05:03:14.438Z,15.43
2023-05-13T05:05:42.867Z,14.43
2023-05-13T05:08:12.970Z,15.07
2023-05-13T05:10:48.095Z,17.37
2023-05-13T05:13:20.646Z,14.60
2023-05-13T05:15:49.045Z,13.57
2023-05-13T05:31:21.466Z,11.03
2023-05-13T05:33:48.552Z,11.50
2023-05-13T05:36:38.732Z,12.97
2023-05-13T05:39:09.813Z,13.00
2023-05-13T05:41:53.953Z,13.20
2023-05-13T05:44:23.558Z,13.33
2023-05-13T05:46:53.891Z,13.23
2023-05-13T05:49:22.141Z,17.27
2023-05-13T05:51:53.611Z,12.77
2023-05-13T05:54:24.446Z,14.03
2023-05-13T05:56:52.839Z,13.37
2023-05-13T06:02:20.469Z,17.20
2023-05-13T06:04:54.861Z,16.47
2023-05-13T06:07:28.921Z,18.17
2023-05-13T06:10:07.569Z,17.13
2023-05-13T06:13:02.469Z,17.83
2023-05-13T06:15:31.002Z,17.63
2023-05-13T06:18:01.647Z,15.93
2023-05-13T06:20:34.941Z,16.70
2023-05-13T06:23:03.233Z,16.30
2023-05-13T06:25:34.788Z,18.33
2023-05-13T06:28:15.805Z,18.77
2023-05-13T06:30:52.203Z,21.27
2023-05-13T06:33:31.109Z,18.90
2023-05-13T06:39:21.343Z,21.27
2023-05-13T06:41:50.387Z,19.80
2023-05-13T06:44:18.719Z,21.10
2023-05-13T06:47:16.231Z,26.70
2023-05-13T06:59:23.127Z,21.33
2023-05-13T07:02:11.444Z,21.90
2023-05-13T07:04:41.406Z,25.30
2023-05-13T07:08:11.087Z,24.10
2023-05-13T07:10:42.406Z,23.07
2023-05-13T07:13:11.147Z,21.53
2023-05-13T07:15:53.049Z,21.70
2023-05-13T07:18:21.249Z,28.30
2023-05-13T07:20:55.842Z,23.43
2023-05-13T07:23:23.974Z,23.60
2023-05-13T07:25:52.755Z,21.80
2023-05-13T07:28:21.921Z,21.10
2023-05-13T07:30:53.477Z,18.50
2023-05-13T07:33:21.884Z,20.83
2023-05-13T07:36:07.584Z,17.80
2023-05-13T07:38:35.628Z,19.67
2023-05-13T07:41:03.854Z,22.67
2023-05-13T07:43:39.262Z,22.70
2023-05-13T07:46:09.518Z,22.40
2023-05-13T07:48:37.713Z,23.97
2023-05-13T07:51:06.608Z,21.87
2023-05-13T07:53:37.326Z,21.00
2023-05-13T08:05:04.183Z,17.80
2023-05-13T08:20:45.577Z,16.77
2023-05-13T08:23:14.346Z,12.77
2023-05-13T08:25:42.861Z,12.30
2023-05-13T08:28:10.991Z,12.70
2023-05-13T08:30:40.758Z,14.23
2023-05-13T08:33:09.018Z,15.13
2023-05-13T08:35:38.731Z,12.77
2023-05-13T08:38:06.844Z,15.53
2023-05-13T08:40:35.011Z,10.40
2023-05-13T08:43:03.857Z,13.17
2023-05-13T08:45:32.697Z,9.67
2023-05-13T08:48:02.562Z,10.03
2023-05-13T08:50:31.457Z,9.30
2023-05-13T08:53:04.821Z,8.60
2023-05-13T08:55:33.859Z,9.43
2023-05-13T08:58:02.145Z,8.30
2023-05-13T09:00:30.486Z,7.17
2023-05-13T09:02:58.601Z,6.90
2023-05-13T09:05:26.894Z,7.30
2023-05-13T09:07:55.959Z,7.23
2023-05-13T09:10:25.789Z,7.33
2023-05-13T09:12:55.552Z,6.63
2023-05-13T09:15:25.445Z,8.43
2023-05-13T09:17:56.359Z,6.60
2023-05-13T09:20:25.524Z,9.10
2023-05-13T09:22:58.995Z,7.20
2023-05-13T09:25:29.618Z,6.50
2023-05-13T09:27:59.288Z,7.23
2023-05-13T09:30:28.266Z,7.33
2023-05-13T09:33:10.370Z,6.10
2023-05-13T09:35:39.410Z,7.30
2023-05-13T09:38:15.854Z,8.37
2023-05-13T09:40:52.871Z,6.33
2023-05-13T09:43:22.402Z,8.07
2023-05-13T09:45:54.077Z,6.37
2023-05-13T09:48:22.743Z,5.80
2023-05-13T09:50:52.437Z,4.90
2023-05-13T09:53:21.224Z,5.17
2023-05-13T09:55:51.743Z,5.47
2023-05-13T09:58:20.813Z,5.03
2023-05-13T10:00:49.553Z,5.57
2023-05-13T10:03:17.829Z,5.23
2023-05-13T10:05:47.080Z,4.30
2023-05-13T10:08:15.998Z,4.73
2023-05-13T10:10:46.041Z,6.90
2023-05-13T10:13:18.056Z,5.73
2023-05-13T10:15:51.356Z,5.77
2023-05-13T10:18:20.893Z,3.70
2023-05-13T10:20:53.257Z,4.40
2023-05-13T10:23:22.777Z,5.07
2023-05-13T10:25:55.991Z,5.43
2023-05-13T10:28:28.251Z,3.77
2023-05-13T10:30:57.382Z,3.70
2023-05-13T10:33:29.758Z,4.47
2023-05-13T10:36:08.319Z,6.50
2023-05-13T10:38:45.701Z,4.10
2023-05-13T10:41:28.311Z,7.20
2023-05-13T10:43:59.371Z,7.80
2023-05-13T10:46:28.780Z,4.27
2023-05-13T10:48:58.228Z,7.47
2023-05-13T10:51:27.980Z,4.53
2023-05-13T10:53:58.612Z,5.50
2023-05-13T10:56:28.986Z,3.97
2023-05-13T10:59:02.897Z,3.60
2023-05-13T11:01:32.448Z,2.40
2023-05-13T11:04:02.590Z,5.10
2023-05-13T11:06:35.234Z,3.57
2023-05-13T11:09:06.946Z,2.53
2023-05-13T11:11:36.988Z,2.30
2023-05-13T11:14:15.682Z,2.20
2023-05-13T11:16:47.749Z,4.67
2023-05-13T11:19:23.598Z,2.97
2023-05-13T11:21:54.325Z,3.93
2023-05-13T11:24:23.573Z,10.43
2023-05-13T11:26:53.573Z,4.50
2023-05-13T11:29:34.335Z,4.17
2023-05-13T11:32:03.969Z,6.80
2023-05-13T11:34:32.617Z,6.53
2023-05-13T11:37:09.432Z,7.30
2023-05-13T11:39:40.370Z,8.10
2023-05-13T11:42:14.601Z,7.27
2023-05-13T11:44:52.926Z,8.80
2023-05-13T11:47:27.554Z,6.50
2023-05-13T11:49:59.418Z,6.73
2023-05-13T11:52:32.674Z,8.63
2023-05-13T11:55:11.993Z,8.83
2023-05-13T11:57:42.643Z,6.10
2023-05-13T12:00:14.154Z,7.97
2023-05-13T12:02:44.154Z,7.43
2023-05-13T12:05:13.660Z,7.23
2023-05-13T12:07:42.584Z,5.97
2023-05-13T12:10:14.428Z,7.47
2023-05-13T12:12:55.213Z,5.40
2023-05-13T12:15:25.894Z,4.93
2023-05-13T12:17:58.235Z,5.90
2023-05-13T12:20:32.950Z,5.90
2023-05-13T12:23:04.754Z,6.60
2023-05-13T12:25:45.117Z,5.13
2023-05-13T12:28:24.367Z,10.90
2023-05-13T12:31:01.064Z,4.93
2023-05-13T12:33:30.933Z,5.60
2023-05-13T12:36:21.036Z,5.07
2023-05-13T12:39:00.841Z,7.07
2023-05-13T12:41:36.277Z,5.07
2023-05-13T12:44:06.424Z,5.30
2023-05-13T12:46:36.707Z,5.30
2023-05-13T12:49:06.178Z,5.03
2023-05-13T12:51:34.848Z,5.10
2023-05-13T12:54:03.055Z,5.97
2023-05-13T12:56:31.153Z,4.67
2023-05-13T12:59:02.785Z,5.47
2023-05-13T13:01:34.022Z,6.37
2023-05-13T13:04:03.827Z,4.43
2023-05-13T13:06:35.155Z,5.13
2023-05-13T13:09:03.607Z,7.67
2023-05-13T13:11:31.755Z,3.80
2023-05-13T13:14:00.006Z,3.57
2023-05-13T13:16:28.335Z,3.80
2023-05-13T13:19:01.845Z,3.53
2023-05-13T13:21:32.479Z,5.17
2023-05-13T13:24:01.115Z,3.53
2023-05-13T13:26:33.159Z,3.43
2023-05-13T13:29:01.326Z,3.63
2023-05-13T13:31:29.758Z,3.57
2023-05-13T13:34:04.061Z,6.03
2023-05-13T13:36:36.752Z,3.93
2023-05-13T13:39:05.044Z,3.20
2023-05-13T13:41:33.643Z,6.13
2023-05-13T13:44:01.933Z,3.17
2023-05-13T13:46:31.211Z,4.23
2023-05-13T13:49:00.876Z,5.40
2023-05-13T13:51:30.755Z,3.90
2023-05-13T13:54:04.951Z,2.60
2023-05-13T13:56:33.205Z,4.20
2023-05-13T13:59:01.259Z,5.03
2023-05-13T14:01:29.658Z,2.97
2023-05-13T14:04:11.523Z,3.40
2023-05-13T14:06:40.298Z,2.87
2023-05-13T14:09:10.831Z,4.47
2023-05-13T14:11:39.040Z,4.60
2023-05-13T14:14:07.194Z,3.83
2023-05-13T14:16:35.534Z,4.50
2023-05-13T14:19:04.072Z,4.43
2023-05-13T14:21:33.253Z,4.37
2023-05-13T14:24:01.361Z,3.23
2023-05-13T14:26:31.261Z,4.33
2023-05-13T14:28:59.510Z,4.63
2023-05-13T14:31:27.887Z,3.40
2023-05-13T14:33:55.990Z,6.30
2023-05-13T14:36:26.556Z,5.80
2023-05-13T14:38:54.607Z,3.83
2023-05-13T14:41:23.232Z,4.67
2023-05-13T14:43:52.633Z,4.70
2023-05-13T14:46:20.796Z,3.43
2023-05-13T14:48:48.972Z,4.43
2023-05-13T14:51:17.715Z,4.77
2023-05-13T14:53:45.959Z,3.97
2023-05-13T14:56:14.053Z,2.30
2023-05-13T14:58:42.531Z,2.60
2023-05-13T15:01:12.537Z,2.53
2023-05-13T15:03:43.427Z,2.90
2023-05-13T15:06:11.600Z,2.67
2023-05-13T15:08:39.779Z,4.70
2023-05-13T15:11:08.629Z,3.43
2023-05-13T15:13:39.963Z,2.90
2023-05-13T15:16:08.731Z,2.77
2023-05-13T15:18:38.671Z,4.10
2023-05-13T15:21:07.880Z,3.90
2023-05-13T15:23:36.230Z,7.07
2023-05-13T15:26:04.353Z,3.10
2023-05-13T15:28:32.617Z,3.40
2023-05-13T15:31:00.778Z,3.40
2023-05-13T15:33:28.940Z,2.93
2023-05-13T15:35:58.742Z,3.10
2023-05-13T15:38:26.995Z,3.07
2023-05-13T15:40:55.350Z,4.97
2023-05-13T15:43:23.451Z,2.70
2023-05-13T15:45:53.635Z,3.07
2023-05-13T15:48:22.079Z,3.23
2023-05-13T15:50:52.571Z,3.27
2023-05-13T15:53:22.161Z,3.43
2023-05-13T15:55:50.825Z,3.40
2023-05-13T15:58:18.995Z,3.17
2023-05-13T16:00:47.263Z,2.70
2023-05-13T16:03:17.049Z,4.63
2023-05-13T16:05:48.140Z,4.23
2023-05-13T16:08:16.365Z,3.53
2023-05-13T16:10:45.924Z,4.40
2023-05-13T16:13:14.286Z,4.20
2023-05-13T16:15:42.640Z,3.07
2023-05-13T16:18:10.828Z,5.03
2023-05-13T16:20:39.925Z,3.00
2023-05-13T16:23:08.119Z,3.37
2023-05-13T16:25:36.194Z,4.53
2023-05-13T16:28:06.042Z,3.33
2023-05-13T16:30:34.523Z,3.00
2023-05-13T16:33:02.816Z,3.10
2023-05-13T16:35:31.032Z,3.43
2023-05-13T16:37:59.189Z,4.03
2023-05-13T16:40:27.325Z,3.17
2023-05-13T16:42:58.786Z,3.23
2023-05-13T16:45:29.698Z,3.77
2023-05-13T16:47:57.876Z,3.63
2023-05-13T16:50:26.265Z,3.27
2023-05-13T16:52:54.615Z,4.60
2023-05-13T16:55:22.880Z,3.57
2023-05-13T16:57:51.151Z,3.43
2023-05-13T17:00:22.741Z,3.93
2023-05-13T17:02:55.640Z,3.63
2023-05-13T17:05:26.384Z,5.10
2023-05-13T17:07:54.526Z,4.67
2023-05-13T17:10:23.244Z,3.87
2023-05-13T17:12:55.340Z,4.30
2023-05-13T17:15:24.593Z,3.57
2023-05-13T17:17:54.479Z,8.00
2023-05-13T17:20:23.172Z,4.73
2023-05-13T17:22:51.554Z,4.30
2023-05-13T17:25:20.116Z,4.67
2023-05-13T17:27:48.342Z,4.53
2023-05-13T17:30:17.790Z,3.60
2023-05-13T17:32:48.853Z,4.07
2023-05-13T17:35:18.573Z,7.07
2023-05-13T17:37:46.799Z,4.33
2023-05-13T17:40:15.115Z,5.03
2023-05-13T17:42:43.218Z,4.30
2023-05-13T17:45:20.655Z,5.27
2023-05-13T17:47:48.874Z,4.20
2023-05-13T17:50:18.464Z,5.57
2023-05-13T17:52:47.125Z,5.97
2023-05-13T17:55:31.251Z,5.33
2023-05-13T17:58:01.887Z,5.17
2023-05-13T18:00:32.742Z,5.97
2023-05-13T18:03:00.820Z,6.33
2023-05-13T18:05:30.875Z,5.00
2023-05-13T18:08:00.134Z,5.47
2023-05-13T18:10:31.390Z,5.60
2023-05-13T18:12:59.468Z,4.93
2023-05-13T18:15:33.299Z,5.60
2023-05-13T18:18:03.505Z,8.03
2023-05-13T18:20:33.394Z,5.80
2023-05-13T18:23:01.539Z,5.57
2023-05-13T18:25:29.542Z,6.80
2023-05-13T18:27:57.533Z,5.87
2023-05-13T18:30:25.728Z,5.93
2023-05-13T18:32:54.427Z,6.33
2023-05-13T18:35:24.266Z,6.70
2023-05-13T18:37:53.748Z,5.77
2023-05-13T18:40:22.300Z,6.40
2023-05-13T18:42:50.675Z,6.53
2023-05-13T18:45:18.716Z,6.63
2023-05-13T18:47:46.897Z,5.97
2023-05-13T18:50:15.067Z,6.37
2023-05-13T18:52:43.084Z,5.97
2023-05-13T18:55:15.606Z,6.93
2023-05-13T18:57:43.595Z,6.20
2023-05-13T19:00:12.614Z,6.43
2023-05-13T19:02:41.072Z,6.00
2023-05-13T19:05:09.870Z,5.97
2023-05-13T19:07:38.181Z,6.17
2023-05-13T19:10:07.134Z,5.50
2023-05-13T19:12:36.540Z,8.10
2023-05-13T19:15:05.110Z,6.27
2023-05-13T19:17:33.263Z,8.03
2023-05-13T19:20:01.381Z,6.47
2023-05-13T19:22:29.564Z,6.93
2023-05-13T19:24:57.800Z,6.67
2023-05-13T19:27:26.257Z,6.03
2023-05-13T19:29:55.897Z,5.73
2023-05-13T19:32:23.969Z,6.53
2023-05-13T19:34:52.238Z,6.33
2023-05-13T19:37:20.387Z,6.70
2023-05-13T19:39:48.521Z,6.77
2023-05-13T19:42:16.724Z,5.63
2023-05-13T19:44:44.881Z,6.20
2023-05-13T19:47:14.436Z,5.93
2023-05-13T19:49:43.007Z,5.83
2023-05-13T19:52:11.094Z,8.70
2023-05-13T19:54:39.325Z,7.90
2023-05-13T19:57:07.749Z,7.73
2023-05-13T19:59:36.138Z,5.87
2023-05-13T20:02:04.549Z,6.03
2023-05-13T20:04:34.244Z,6.67
2023-05-13T20:07:02.385Z,7.00
2023-05-13T20:09:30.639Z,8.50
2023-05-13T20:12:03.841Z,10.90
2023-05-13T20:14:43.932Z,9.57
2023-05-13T20:17:17.999Z,9.27
2023-05-13T20:19:48.403Z,8.53
2023-05-13T20:22:17.411Z,8.93
2023-05-13T20:24:46.805Z,8.27
2023-05-13T20:27:15.253Z,8.87
2023-05-13T20:29:45.156Z,7.73
2023-05-13T20:32:13.503Z,7.13
2023-05-13T20:34:42.118Z,7.00
2023-05-13T20:37:11.680Z,8.07
2023-05-13T20:39:39.740Z,7.37
2023-05-13T20:42:08.092Z,7.27
2023-05-13T20:44:36.226Z,7.10
2023-05-13T20:47:05.177Z,7.40
2023-05-13T20:49:34.092Z,7.97
2023-05-13T20:52:03.418Z,7.43
2023-05-13T20:54:33.001Z,7.60
2023-05-13T20:57:02.990Z,7.63
2023-05-13T20:59:31.210Z,7.60
2023-05-13T21:01:59.445Z,8.57
2023-05-13T21:04:27.942Z,8.13
2023-05-13T21:06:56.052Z,9.20
2023-05-13T21:09:24.134Z,7.87
2023-05-13T21:11:53.508Z,7.93
2023-05-13T21:14:22.723Z,8.70
2023-05-13T21:16:51.120Z,8.60
2023-05-13T21:19:20.828Z,8.53
2023-05-13T21:21:48.857Z,8.17
2023-05-13T21:24:18.115Z,10.47
2023-05-13T21:26:46.241Z,8.10
2023-05-13T21:29:16.819Z,8.93
2023-05-13T21:31:46.881Z,8.67
2023-05-13T21:34:14.932Z,9.20
2023-05-13T21:36:42.946Z,9.50
2023-05-13T21:39:11.298Z,9.17
2023-05-13T21:41:39.998Z,9.20
2023-05-13T21:44:08.336Z,8.77
2023-05-13T21:46:38.535Z,9.20
2023-05-13T21:49:06.523Z,8.90
2023-05-13T21:51:34.559Z,9.27
2023-05-13T21:54:03.808Z,11.47
2023-05-13T21:56:32.246Z,9.87
2023-05-13T21:59:00.221Z,9.93
2023-05-13T22:01:28.544Z,10.90
2023-05-13T22:03:58.023Z,11.30
2023-05-13T22:06:26.231Z,10.57
2023-05-13T22:08:54.234Z,13.27
2023-05-13T22:11:22.225Z,10.77
2023-05-13T22:13:50.189Z,13.00
2023-05-13T22:16:18.306Z,10.77
2023-05-13T22:18:46.414Z,10.50
2023-05-13T22:21:15.827Z,11.00
2023-05-13T22:23:44.345Z,11.20
2023-05-13T22:26:12.368Z,11.57
2023-05-13T22:28:40.524Z,11.37
2023-05-13T22:31:08.597Z,11.13
2023-05-13T22:33:36.691Z,12.40
2023-05-13T22:36:05.286Z,13.47
2023-05-13T22:38:34.689Z,11.17
2023-05-13T22:41:02.826Z,11.83
2023-05-13T22:43:30.740Z,10.57
2023-05-13T22:45:58.779Z,11.67
2023-05-13T22:48:26.822Z,10.33
2023-05-13T22:50:56.968Z,11.53
2023-05-13T22:53:25.535Z,10.67
2023-05-13T22:55:54.949Z,10.20
2023-05-13T22:58:23.080Z,11.50
2023-05-13T23:00:51.098Z,12.47
2023-05-13T23:03:19.044Z,11.47
2023-05-13T23:05:47.089Z,12.50
2023-05-13T23:08:15.118Z,11.50
2023-05-13T23:10:43.149Z,10.80
2023-05-13T23:13:12.436Z,11.27
2023-05-13T23:15:40.514Z,10.77
2023-05-13T23:18:08.569Z,12.57
2023-05-13T23:20:36.531Z,11.93
2023-05-13T23:23:04.566Z,11.20
2023-05-13T23:25:32.923Z,9.97
2023-05-13T23:28:01.008Z,10.83
2023-05-13T23:30:30.351Z,10.37
2023-05-13T23:32:58.538Z,11.67
2023-05-13T23:35:26.629Z,11.63
2023-05-13T23:37:54.652Z,10.37
2023-05-13T23:40:22.838Z,10.67
2023-05-13T23:42:50.920Z,11.03
2023-05-13T23:45:18.996Z,10.57
2023-05-13T23:47:48.494Z,11.73
2023-05-13T23:50:16.562Z,12.30
2023-05-13T23:52:44.612Z,11.40
2023-05-13T23:55:12.651Z,11.53
2023-05-13T23:57:40.671Z,10.53
